Time;durP1;ratioP1;P1;durP2;ratioP2;P2;SDS_P1;SDS_P2;PMS_P1;PMS_P2;Temp;Humidity;BMP_temperature;BMP_pressure;BME280_temperature;BME280_humidity;BME280_pressure;Samples;Min_cycle;Max_cycle;Signal;HPM_P1;HPM_P2
2022/01/14 00:00:59;;;;;;;;;25.25;20.50;;;;;-149.97;100.00;66579.34;5033173;28;45511;-74
2022/01/14 00:03:24;;;;;;;;;24.25;21.00;;;;;-149.97;100.00;66579.34;5033641;28;45217;-74
2022/01/14 00:05:50;;;;;;;;;23.50;19.00;;;;;-149.97;100.00;66579.34;5031882;28;45273;-73
2022/01/14 00:08:15;;;;;;;;;24.00;21.25;;;;;-149.97;100.00;66579.34;5021549;28;48246;-74
2022/01/14 00:10:47;;;;;;;;;25.25;20.75;;;;;-149.97;100.00;66579.34;5031973;28;45228;-73
2022/01/14 00:13:37;;;;;;;;;20.00;17.25;;;;;-149.97;100.00;66579.34;5033465;28;45449;-75
2022/01/14 00:15:58;;;;;;;;;19.75;19.50;;;;;-149.97;100.00;66579.34;5030712;28;45529;-74
2022/01/14 00:18:23;;;;;;;;;26.25;17.75;;;;;-149.97;100.00;66579.34;5033076;28;52318;-74
2022/01/14 00:20:48;;;;;;;;;22.00;17.00;;;;;-149.97;100.00;66579.34;5033370;28;45364;-74
2022/01/14 00:23:14;;;;;;;;;23.50;19.75;;;;;-149.97;100.00;66579.34;5035217;28;45183;-73
2022/01/14 00:33:51;;;;;;;;;21.00;20.50;;;;;-149.97;100.00;66579.34;5031408;28;45481;-74
2022/01/14 00:36:16;;;;;;;;;20.50;17.50;;;;;-149.97;100.00;66579.34;5035602;28;45468;-74
2022/01/14 00:38:41;;;;;;;;;29.75;20.75;;;;;-149.97;100.00;66579.34;5036393;28;47008;-74
2022/01/14 00:41:08;;;;;;;;;24.25;18.75;;;;;-149.97;100.00;66579.34;5031343;28;45421;-74
2022/01/14 00:43:34;;;;;;;;;20.00;20.00;;;;;-149.97;100.00;66579.34;5035151;28;45334;-74
2022/01/14 00:46:00;;;;;;;;;20.00;17.00;;;;;-149.97;100.00;66579.34;5008252;28;45630;-73
2022/01/14 00:48:25;;;;;;;;;23.25;17.00;;;;;-149.97;100.00;66579.34;5022849;28;46252;-74
2022/01/14 00:50:50;;;;;;;;;25.00;21.50;;;;;-149.97;100.00;66579.34;5037844;28;45546;-74
2022/01/14 00:53:16;;;;;;;;;22.75;21.50;;;;;-149.97;100.00;66579.34;5022980;28;45263;-74
2022/01/14 00:55:54;;;;;;;;;25.25;19.75;;;;;-149.97;100.00;66579.34;5032828;28;45256;-74
2022/01/14 01:01:04;;;;;;;;;28.00;18.25;;;;;-149.97;100.00;66579.34;5024931;28;45401;-74
2022/01/14 01:03:29;;;;;;;;;24.00;19.50;;;;;-149.97;100.00;66579.34;5023576;28;45457;-74
2022/01/14 01:05:55;;;;;;;;;23.00;19.25;;;;;-149.97;100.00;66579.34;5025497;28;45389;-74
2022/01/14 01:08:24;;;;;;;;;26.00;21.25;;;;;-149.97;100.00;66579.34;5037254;28;46263;-73
2022/01/14 01:10:50;;;;;;;;;22.25;18.50;;;;;-149.97;100.00;66579.34;5013049;28;45429;-74
2022/01/14 01:13:22;;;;;;;;;19.00;18.00;;;;;-149.97;100.00;66579.34;5034887;28;45439;-72
2022/01/14 01:15:49;;;;;;;;;21.00;19.75;;;;;-149.97;100.00;66579.34;5036587;28;45354;-74
2022/01/14 01:18:15;;;;;;;;;21.00;16.50;;;;;-149.97;100.00;66579.34;5034220;28;46350;-74
2022/01/14 01:20:41;;;;;;;;;23.00;19.75;;;;;-149.97;100.00;66579.34;5034196;28;45295;-73
2022/01/14 01:23:06;;;;;;;;;18.75;17.25;;;;;-149.97;100.00;66579.34;5036041;28;45355;-74
2022/01/14 01:25:39;;;;;;;;;18.50;18.00;;;;;-149.97;100.00;66579.34;5033985;28;45555;-74
2022/01/14 01:28:04;;;;;;;;;18.25;15.75;;;;;-149.97;100.00;66579.34;5032321;28;46931;-73
2022/01/14 01:32:56;;;;;;;;;23.50;19.25;;;;;-149.97;100.00;66579.34;5018283;28;45565;-73
2022/01/14 01:35:21;;;;;;;;;27.25;20.75;;;;;-149.97;100.00;66579.34;5037865;28;45342;-74
2022/01/14 01:37:46;;;;;;;;;21.50;18.75;;;;;-149.97;100.00;66579.34;5028652;28;45471;-73
2022/01/14 01:40:14;;;;;;;;;21.50;17.75;;;;;-149.97;100.00;66579.34;5033488;28;45430;-74
2022/01/14 01:42:42;;;;;;;;;20.75;18.25;;;;;-149.97;100.00;66579.34;5022692;28;45497;-74
2022/01/14 01:45:11;;;;;;;;;18.50;15.00;;;;;-149.97;100.00;66579.34;5034917;28;45457;-74
2022/01/14 01:47:37;;;;;;;;;19.50;17.25;;;;;-149.97;100.00;66579.34;5022996;28;46961;-74
2022/01/14 01:50:16;;;;;;;;;20.50;15.50;;;;;-149.97;100.00;66579.34;5034808;28;45397;-74
2022/01/14 01:52:42;;;;;;;;;21.75;17.75;;;;;-149.97;100.00;66579.34;5034938;28;45361;-74
2022/01/14 01:55:08;;;;;;;;;21.00;19.00;;;;;-149.97;100.00;66579.34;5035995;28;45452;-73
2022/01/14 01:57:35;;;;;;;;;19.75;16.75;;;;;-149.97;100.00;66579.34;5034910;28;46108;-74
2022/01/14 02:00:01;;;;;;;;;23.00;18.50;;;;;-149.97;100.00;66579.34;5035626;28;45472;-74
2022/01/14 02:02:27;;;;;;;;;14.25;14.00;;;;;-149.97;100.00;66579.34;5035833;28;45357;-74
2022/01/14 02:04:53;;;;;;;;;22.25;19.25;;;;;-149.97;100.00;66579.34;5036106;28;46787;-74
2022/01/14 02:07:18;;;;;;;;;16.75;15.50;;;;;-149.97;100.00;66579.34;5032124;28;46007;-74
2022/01/14 02:09:43;;;;;;;;;21.50;15.50;;;;;-149.97;100.00;66579.34;5031530;28;46187;-73
2022/01/14 02:12:11;;;;;;;;;22.75;20.25;;;;;-149.97;100.00;66579.34;5022788;28;45397;-74
2022/01/14 02:22:10;;;;;;;;;19.00;17.00;;;;;-149.97;100.00;66579.34;5035566;28;45367;-73
2022/01/14 02:22:54;;;;;;;;;17.00;15.75;;;;;-149.97;100.00;66579.34;5035506;28;45329;-74
2022/01/14 02:25:30;;;;;;;;;17.75;16.00;;;;;-149.97;100.00;66579.34;5026435;28;45391;-74
2022/01/14 02:28:06;;;;;;;;;18.00;16.75;;;;;-149.97;100.00;66579.34;5029996;28;46076;-73
2022/01/14 02:30:34;;;;;;;;;16.50;14.50;;;;;-149.97;100.00;66579.34;5035560;28;45372;-74
2022/01/14 02:32:59;;;;;;;;;18.25;17.00;;;;;-149.97;100.00;66579.34;5035647;28;45487;-74
2022/01/14 02:35:25;;;;;;;;;19.25;16.25;;;;;-149.97;100.00;66579.34;5036152;28;45394;-74
2022/01/14 02:37:51;;;;;;;;;22.00;18.00;;;;;-149.97;100.00;66579.34;5035271;28;46064;-74
2022/01/14 02:40:19;;;;;;;;;18.75;16.50;;;;;-149.97;100.00;66579.34;5034620;28;45634;-73
2022/01/14 02:42:47;;;;;;;;;21.00;15.25;;;;;-149.97;100.00;66579.34;5034012;28;45517;-74
2022/01/14 02:45:13;;;;;;;;;19.75;17.75;;;;;-149.97;100.00;66579.34;5035006;28;45683;-74
2022/01/14 02:47:39;;;;;;;;;19.00;14.75;;;;;-149.97;100.00;66579.34;5033959;28;46372;-74
2022/01/14 02:50:12;;;;;;;;;14.25;13.50;;;;;-149.97;100.00;66579.34;5035993;28;45394;-73
2022/01/14 02:52:58;;;;;;;;;16.00;14.50;;;;;-149.97;100.00;66579.34;5034332;28;45625;-74
2022/01/14 02:55:30;;;;;;;;;17.50;16.00;;;;;-149.97;100.00;66579.34;5027055;28;45433;-73
2022/01/14 02:57:58;;;;;;;;;14.25;13.25;;;;;-149.97;100.00;66579.34;5026867;28;47273;-74
2022/01/14 03:00:28;;;;;;;;;16.75;16.50;;;;;-149.97;100.00;66579.34;5023599;28;45375;-73
2022/01/14 03:02:54;;;;;;;;;18.25;13.75;;;;;-149.97;100.00;66579.34;5020226;28;45503;-73
2022/01/14 03:05:21;;;;;;;;;16.75;14.00;;;;;-149.97;100.00;66579.34;5020640;28;45461;-73
2022/01/14 03:07:47;;;;;;;;;17.50;15.00;;;;;-149.97;100.00;66579.34;5031094;28;47221;-74
2022/01/14 03:10:16;;;;;;;;;18.25;14.50;;;;;-149.97;100.00;66579.34;5006566;28;45609;-74
2022/01/14 03:12:43;;;;;;;;;16.75;15.00;;;;;-149.97;100.00;66579.34;5021258;28;45403;-74
2022/01/14 03:15:11;;;;;;;;;18.25;17.75;;;;;-149.97;100.00;66579.34;5034842;28;45327;-74
2022/01/14 03:17:37;;;;;;;;;16.50;14.75;;;;;-149.97;100.00;66579.34;5033614;28;46056;-74
2022/01/14 03:20:05;;;;;;;;;20.00;15.25;;;;;-149.97;100.00;66579.34;5033680;28;45448;-73
2022/01/14 03:22:35;;;;;;;;;15.50;14.50;;;;;-149.97;100.00;66579.34;5035018;28;45474;-73
2022/01/14 03:27:50;;;;;;;;;19.50;16.25;;;;;-149.97;100.00;66579.34;5024415;28;45414;-74
2022/01/14 03:30:15;;;;;;;;;13.00;11.25;;;;;-149.97;100.00;66579.34;5032217;28;45378;-74
2022/01/14 03:32:41;;;;;;;;;21.25;15.75;;;;;-149.97;100.00;66579.34;5031412;28;45353;-74
2022/01/14 03:35:08;;;;;;;;;16.50;13.75;;;;;-149.97;100.00;66579.34;5033711;28;45464;-74
2022/01/14 03:37:35;;;;;;;;;17.75;14.75;;;;;-149.97;100.00;66579.34;5032144;28;46217;-74
2022/01/14 03:40:01;;;;;;;;;18.75;16.00;;;;;-149.97;100.00;66579.34;5033233;28;45342;-74
2022/01/14 03:42:26;;;;;;;;;13.75;12.50;;;;;-149.97;100.00;66579.34;5029659;28;45440;-74
2022/01/14 03:44:52;;;;;;;;;17.25;14.75;;;;;-149.97;100.00;66579.34;5015942;28;45588;-74
2022/01/14 03:47:18;;;;;;;;;18.50;14.50;;;;;-149.97;100.00;66579.34;5035458;28;46047;-74
2022/01/14 03:49:43;;;;;;;;;23.25;16.75;;;;;-149.97;100.00;66579.34;5033614;28;45536;-74
2022/01/14 03:52:09;;;;;;;;;15.00;14.75;;;;;-149.97;100.00;66579.34;5024396;28;45489;-74
2022/01/14 03:54:35;;;;;;;;;14.25;14.25;;;;;-149.97;100.00;66579.34;5031300;28;45487;-74
2022/01/14 03:57:01;;;;;;;;;15.50;13.50;;;;;-149.97;100.00;66579.34;5034396;28;45425;-74
2022/01/14 03:59:26;;;;;;;;;14.75;13.75;;;;;-149.97;100.00;66579.34;5034525;28;45449;-73
2022/01/14 04:01:51;;;;;;;;;14.50;14.50;;;;;-149.97;100.00;66579.34;5032164;28;48381;-74
2022/01/14 04:04:17;;;;;;;;;18.25;15.00;;;;;-149.97;100.00;66579.34;5031681;28;45362;-73
2022/01/14 04:06:42;;;;;;;;;14.25;13.75;;;;;-149.97;100.00;66579.34;5032171;28;45425;-74
2022/01/14 04:09:08;;;;;;;;;12.50;11.50;;;;;-149.97;100.00;66579.34;5031293;28;45592;-74
2022/01/14 04:11:34;;;;;;;;;18.25;15.75;;;;;-149.97;100.00;66579.34;5031624;28;45401;-74
2022/01/14 04:16:44;;;;;;;;;16.25;13.50;;;;;-149.97;100.00;66579.34;5036625;28;45558;-74
2022/01/14 04:19:10;;;;;;;;;14.00;13.75;;;;;-149.97;100.00;66579.34;5036603;28;45445;-74
2022/01/14 04:21:35;;;;;;;;;16.25;12.75;;;;;-149.97;100.00;66579.34;5035339;28;45510;-74
2022/01/14 04:24:00;;;;;;;;;15.25;13.75;;;;;-149.97;100.00;66579.34;5036822;28;45488;-73
2022/01/14 04:26:26;;;;;;;;;13.75;11.50;;;;;-149.97;100.00;66579.34;5034923;28;46273;-74
2022/01/14 04:28:51;;;;;;;;;18.25;15.75;;;;;-149.97;100.00;66579.34;5030496;28;45239;-74
2022/01/14 04:31:16;;;;;;;;;16.50;12.75;;;;;-149.97;100.00;66579.34;5029568;28;45164;-74
2022/01/14 04:33:42;;;;;;;;;13.50;13.50;;;;;-149.97;100.00;66579.34;5026095;28;46063;-74
2022/01/14 04:36:07;;;;;;;;;7.50;7.00;;;;;-149.97;100.00;66579.34;5036494;28;45835;-74
2022/01/14 04:38:33;;;;;;;;;15.75;14.00;;;;;-149.97;100.00;66579.34;5037378;28;48934;-73
2022/01/14 04:40:59;;;;;;;;;15.00;15.00;;;;;-149.97;100.00;66579.34;5037956;28;45362;-74
2022/01/14 04:43:24;;;;;;;;;14.25;14.00;;;;;-149.97;100.00;66579.34;5032233;28;45478;-74
2022/01/14 04:46:47;;;;;;;;;16.50;16.00;;;;;-149.97;100.00;66579.34;5029364;28;46338;-74
2022/01/14 04:48:40;;;;;;;;;14.50;13.50;;;;;-149.97;100.00;66579.34;5028977;28;45216;-74
2022/01/14 04:51:08;;;;;;;;;12.25;9.50;;;;;-149.97;100.00;66579.34;5033695;28;45430;-74
2022/01/14 04:53:35;;;;;;;;;16.00;12.50;;;;;-149.97;100.00;66579.34;5037211;28;45439;-74
2022/01/14 04:56:00;;;;;;;;;12.75;11.00;;;;;-149.97;100.00;66579.34;5037934;28;46488;-74
2022/01/14 04:58:27;;;;;;;;;14.25;12.75;;;;;-149.97;100.00;66579.34;5036101;28;45449;-74
2022/01/14 05:00:53;;;;;;;;;14.75;14.00;;;;;-149.97;100.00;66579.34;5035534;28;45473;-74
2022/01/14 05:03:19;;;;;;;;;14.00;14.00;;;;;-149.97;100.00;66579.34;5037076;28;45397;-74
2022/01/14 05:05:48;;;;;;;;;15.50;13.00;;;;;-149.97;100.00;66579.34;5036083;28;45394;-74
2022/01/14 05:08:24;;;;;;;;;11.50;11.50;;;;;-149.97;100.00;66579.34;5037965;28;45419;-73
2022/01/14 05:11:04;;;;;;;;;13.75;13.75;;;;;-149.97;100.00;66579.34;5037542;28;45479;-74
2022/01/14 05:13:30;;;;;;;;;14.00;13.00;;;;;-149.97;100.00;66579.34;5037252;28;45346;-72
2022/01/14 05:15:56;;;;;;;;;13.50;12.50;;;;;-149.97;100.00;66579.34;5032147;28;45351;-73
2022/01/14 05:18:25;;;;;;;;;14.75;12.00;;;;;-149.97;100.00;66579.34;5035028;28;45234;-75
2022/01/14 05:20:52;;;;;;;;;12.50;12.50;;;;;-149.97;100.00;66579.34;5036534;28;45654;-74
2022/01/14 05:23:19;;;;;;;;;15.50;12.50;;;;;-149.97;100.00;66579.34;5037213;28;45426;-74
2022/01/14 05:25:45;;;;;;;;;14.75;12.75;;;;;-149.97;100.00;66579.34;5025206;28;47086;-74
2022/01/14 05:28:10;;;;;;;;;11.25;11.25;;;;;-149.97;100.00;66579.34;5033947;28;45371;-74
2022/01/14 05:30:36;;;;;;;;;13.75;12.50;;;;;-149.97;100.00;66579.34;5036408;28;45382;-75
2022/01/14 05:33:02;;;;;;;;;14.00;14.00;;;;;-149.97;100.00;66579.34;5021887;28;45370;-74
2022/01/14 05:35:28;;;;;;;;;13.50;13.00;;;;;-149.97;100.00;66579.34;5037182;28;50746;-74
2022/01/14 05:37:54;;;;;;;;;11.50;11.50;;;;;-149.97;100.00;66579.34;5037245;28;45346;-73
2022/01/14 05:40:21;;;;;;;;;14.00;10.25;;;;;-149.97;100.00;66579.34;5036480;28;46354;-74
2022/01/14 05:42:48;;;;;;;;;16.00;14.00;;;;;-149.97;100.00;66579.34;5033798;28;45667;-74
2022/01/14 05:45:15;;;;;;;;;11.25;11.25;;;;;-149.97;100.00;66579.34;5024360;28;45258;-73
2022/01/14 05:47:41;;;;;;;;;12.50;11.00;;;;;-149.97;100.00;66579.34;5018172;28;45390;-73
2022/01/14 05:50:18;;;;;;;;;14.50;12.00;;;;;-149.97;100.00;66579.34;5037499;28;45321;-74
2022/01/14 05:52:44;;;;;;;;;13.75;11.50;;;;;-149.97;100.00;66579.34;5033040;28;45714;-74
2022/01/14 05:55:11;;;;;;;;;12.50;12.25;;;;;-149.97;100.00;66579.34;5029734;28;46095;-74
2022/01/14 05:57:38;;;;;;;;;12.50;12.00;;;;;-149.97;100.00;66579.34;5025764;28;45498;-74
2022/01/14 06:00:22;;;;;;;;;14.50;11.75;;;;;-149.97;100.00;66579.34;5022550;28;45288;-74
2022/01/14 06:02:50;;;;;;;;;12.75;12.75;;;;;-149.97;100.00;66579.34;5031566;28;45506;-73
2022/01/14 06:05:17;;;;;;;;;13.00;10.00;;;;;-149.97;100.00;66579.34;5014623;28;46356;-74
2022/01/14 06:07:42;;;;;;;;;17.00;12.50;;;;;-149.97;100.00;66579.34;5036556;28;45481;-73
2022/01/14 06:10:08;;;;;;;;;10.75;10.25;;;;;-149.97;100.00;66579.34;5031712;28;45509;-74
2022/01/14 06:12:34;;;;;;;;;12.75;10.75;;;;;-149.97;100.00;66579.34;5034557;28;45470;-74
2022/01/14 06:15:00;;;;;;;;;12.25;12.00;;;;;-149.97;100.00;66579.34;5021564;28;46566;-74
2022/01/14 06:17:26;;;;;;;;;13.25;11.00;;;;;-149.97;100.00;66579.34;5036053;28;45484;-74
2022/01/14 06:19:51;;;;;;;;;11.25;10.75;;;;;-149.97;100.00;66579.34;5036088;28;45442;-74
2022/01/14 06:22:17;;;;;;;;;10.25;10.00;;;;;-149.97;100.00;66579.34;5035089;28;45394;-74
2022/01/14 06:24:42;;;;;;;;;13.75;10.00;;;;;-149.97;100.00;66579.34;5035430;28;48505;-73
2022/01/14 06:27:08;;;;;;;;;9.25;9.25;;;;;-149.97;100.00;66579.34;5032570;28;45394;-74
2022/01/14 06:29:33;;;;;;;;;12.00;11.50;;;;;-149.97;100.00;66579.34;5035460;28;45240;-74
2022/01/14 06:31:58;;;;;;;;;10.25;10.00;;;;;-149.97;100.00;66579.34;5036680;28;45648;-73
2022/01/14 06:34:24;;;;;;;;;11.75;11.75;;;;;-149.97;100.00;66579.34;5032933;28;46627;-73
2022/01/14 06:36:49;;;;;;;;;12.75;12.50;;;;;-149.97;100.00;66579.34;5032639;28;45347;-74
2022/01/14 06:39:14;;;;;;;;;16.25;13.75;;;;;-149.97;100.00;66579.34;5035303;28;45484;-73
2022/01/14 06:41:40;;;;;;;;;13.25;11.00;;;;;-149.97;100.00;66579.34;5022987;28;45391;-74
2022/01/14 06:44:05;;;;;;;;;11.75;10.00;;;;;-149.97;100.00;66579.34;5036557;28;46302;-74
2022/01/14 06:46:31;;;;;;;;;12.00;10.50;;;;;-149.97;100.00;66579.34;5031950;28;45462;-73
2022/01/14 06:48:56;;;;;;;;;14.50;12.00;;;;;-149.97;100.00;66579.34;5033911;28;45390;-73
2022/01/14 06:51:22;;;;;;;;;13.75;11.50;;;;;-149.97;100.00;66579.34;5034291;28;45497;-74
2022/01/14 06:53:47;;;;;;;;;10.75;10.75;;;;;-149.97;100.00;66579.34;5033223;28;45312;-74
2022/01/14 06:56:14;;;;;;;;;9.50;9.50;;;;;-149.97;100.00;66579.34;5033903;28;45403;-74
2022/01/14 06:58:40;;;;;;;;;12.50;10.75;;;;;-149.97;100.00;66579.34;5032042;28;45651;-73
2022/01/14 07:01:05;;;;;;;;;11.50;11.25;;;;;-149.97;100.00;66579.34;5033486;28;45388;-73
2022/01/14 07:03:31;;;;;;;;;12.50;12.50;;;;;-149.97;100.00;66579.34;5034148;28;46848;-73
2022/01/14 07:05:56;;;;;;;;;14.25;13.25;;;;;-149.97;100.00;66579.34;5030638;28;45676;-74
2022/01/14 07:08:21;;;;;;;;;13.50;9.25;;;;;-149.97;100.00;66579.34;5036643;28;45507;-74
2022/01/14 07:10:46;;;;;;;;;12.75;8.50;;;;;-149.97;100.00;66579.34;5034731;28;45652;-74
2022/01/14 07:13:12;;;;;;;;;11.50;10.25;;;;;-149.97;100.00;66579.34;5014695;28;45560;-74
2022/01/14 07:15:38;;;;;;;;;13.25;10.75;;;;;-149.97;100.00;66579.34;5032889;28;45531;-74
2022/01/14 07:18:03;;;;;;;;;11.25;11.25;;;;;-149.97;100.00;66579.34;5031880;28;45503;-74
2022/01/14 07:20:29;;;;;;;;;9.75;9.00;;;;;-149.97;100.00;66579.34;5035330;28;45378;-73
2022/01/14 07:22:54;;;;;;;;;11.00;10.50;;;;;-149.97;100.00;66579.34;5035540;28;45277;-73
2022/01/14 07:25:21;;;;;;;;;13.00;11.25;;;;;-149.97;100.00;66579.34;5032336;28;45709;-75
2022/01/14 07:27:46;;;;;;;;;15.75;12.50;;;;;-149.97;100.00;66579.34;5030022;28;45329;-75
2022/01/14 07:30:15;;;;;;;;;10.75;9.00;;;;;-149.97;100.00;66579.34;5033250;28;45287;-74
2022/01/14 07:32:40;;;;;;;;;13.50;10.00;;;;;-149.97;100.00;66579.34;5033778;28;46365;-74
2022/01/14 07:35:06;;;;;;;;;13.00;12.00;;;;;-149.97;100.00;66579.34;5017863;28;45522;-75
2022/01/14 07:37:31;;;;;;;;;10.25;10.25;;;;;-149.97;100.00;66579.34;5034749;28;45473;-76
2022/01/14 07:39:57;;;;;;;;;9.00;8.75;;;;;-149.97;100.00;66579.34;5026594;28;45501;-74
2022/01/14 07:42:22;;;;;;;;;12.00;9.00;;;;;-149.97;100.00;66579.34;5034510;28;46185;-74
2022/01/14 07:44:47;;;;;;;;;13.50;13.25;;;;;-149.97;100.00;66579.34;5032587;28;45528;-74
2022/01/14 07:47:13;;;;;;;;;9.50;9.00;;;;;-149.97;100.00;66579.34;5034985;28;45508;-75
2022/01/14 07:49:38;;;;;;;;;10.00;10.00;;;;;-149.97;100.00;66579.34;5033194;28;45517;-75
2022/01/14 07:52:04;;;;;;;;;13.50;12.00;;;;;-149.97;100.00;66579.34;5033756;28;46049;-75
2022/01/14 07:54:30;;;;;;;;;15.00;12.00;;;;;-149.97;100.00;66579.34;5033785;28;45368;-75
2022/01/14 07:56:58;;;;;;;;;11.50;10.00;;;;;-149.97;100.00;66579.34;5033922;28;46090;-75
2022/01/14 07:59:26;;;;;;;;;13.50;10.50;;;;;-149.97;100.00;66579.34;5034831;28;45426;-74
2022/01/14 08:01:55;;;;;;;;;12.00;10.00;;;;;-149.97;100.00;66579.34;5033843;28;46808;-74
2022/01/14 08:04:20;;;;;;;;;11.50;8.75;;;;;-149.97;100.00;66579.34;5034061;28;45402;-75
2022/01/14 08:06:49;;;;;;;;;10.00;10.00;;;;;-149.97;100.00;66579.34;5010318;28;45315;-75
2022/01/14 08:09:16;;;;;;;;;9.25;9.25;;;;;-149.97;100.00;66579.34;5022705;28;45548;-75
2022/01/14 08:11:42;;;;;;;;;34.75;29.50;;;;;-149.97;100.00;66579.34;5033023;28;46322;-74
2022/01/14 08:14:08;;;;;;;;;30.25;25.25;;;;;-149.97;100.00;66579.34;5034661;28;45374;-74
2022/01/14 08:16:33;;;;;;;;;16.50;15.25;;;;;-149.97;100.00;66579.34;5031933;28;45594;-75
2022/01/14 08:18:59;;;;;;;;;22.00;17.50;;;;;-149.97;100.00;66579.34;5014226;28;45585;-74
2022/01/14 08:21:24;;;;;;;;;23.00;20.00;;;;;-149.97;100.00;66579.34;5026869;28;45540;-74
2022/01/14 08:23:49;;;;;;;;;26.50;21.50;;;;;-149.97;100.00;66579.34;5032315;28;45444;-74
2022/01/14 08:26:15;;;;;;;;;18.50;17.50;;;;;-149.97;100.00;66579.34;5035117;28;45414;-72
2022/01/14 08:28:41;;;;;;;;;17.75;14.50;;;;;-149.97;100.00;66579.34;5030944;28;45438;-72
2022/01/14 08:31:06;;;;;;;;;20.50;19.00;;;;;-149.97;100.00;66579.34;5033490;28;46102;-73
2022/01/14 08:33:32;;;;;;;;;20.00;18.75;;;;;-149.97;100.00;66579.34;5030513;28;45442;-72
2022/01/14 08:35:57;;;;;;;;;17.25;17.25;;;;;-149.97;100.00;66579.34;5013255;28;45533;-73
2022/01/14 08:38:23;;;;;;;;;12.75;11.00;;;;;-149.97;100.00;66579.34;5033910;28;45592;-72
2022/01/14 08:40:49;;;;;;;;;19.50;19.00;;;;;-149.97;100.00;66579.34;5030459;28;47109;-73
2022/01/14 08:43:14;;;;;;;;;19.50;19.00;;;;;-149.97;100.00;66579.34;5012438;28;45657;-70
2022/01/14 08:45:40;;;;;;;;;19.00;17.25;;;;;-149.97;100.00;66579.34;5030971;28;45734;-72
2022/01/14 08:48:06;;;;;;;;;16.50;15.50;;;;;-149.97;100.00;66579.34;5021934;28;45558;-71
2022/01/14 08:50:35;;;;;;;;;15.75;13.25;;;;;-149.97;100.00;66579.34;5032935;28;46131;-73
2022/01/14 08:53:02;;;;;;;;;14.50;13.50;;;;;-149.97;100.00;66579.34;5034030;28;45495;-71
2022/01/14 08:55:28;;;;;;;;;20.75;17.50;;;;;-149.97;100.00;66579.34;5033103;28;45535;-72
2022/01/14 08:57:53;;;;;;;;;20.25;18.75;;;;;-149.97;100.00;66579.34;5031947;28;46348;-71
2022/01/14 09:00:21;;;;;;;;;20.75;15.50;;;;;-149.97;100.00;66579.34;5036235;28;47284;-71
2022/01/14 09:02:47;;;;;;;;;17.00;17.00;;;;;-149.97;100.00;66579.34;5032500;28;45354;-71
2022/01/14 09:05:12;;;;;;;;;26.50;22.75;;;;;-149.97;100.00;66579.34;5037885;28;45547;-71
2022/01/14 09:07:38;;;;;;;;;22.75;17.50;;;;;-149.97;100.00;66579.34;5036696;28;45456;-70
2022/01/14 09:10:06;;;;;;;;;17.00;15.00;;;;;-149.97;100.00;66579.34;5030051;28;45461;-71
2022/01/14 09:12:32;;;;;;;;;18.50;17.00;;;;;-149.97;100.00;66579.34;5035972;28;45792;-73
2022/01/14 09:14:57;;;;;;;;;16.75;16.00;;;;;-149.97;100.00;66579.34;5035735;28;45368;-71
2022/01/14 09:17:23;;;;;;;;;15.50;15.25;;;;;-149.97;100.00;66579.34;5037628;28;45323;-72
2022/01/14 09:19:48;;;;;;;;;20.00;18.00;;;;;-149.97;100.00;66579.34;5028500;28;46378;-72
2022/01/14 09:22:16;;;;;;;;;20.00;18.50;;;;;-149.97;100.00;66579.34;5031271;28;45432;-72
2022/01/14 09:24:42;;;;;;;;;23.00;18.50;;;;;-149.97;100.00;66579.34;5036069;28;45567;-72
2022/01/14 09:27:07;;;;;;;;;20.00;16.50;;;;;-149.97;100.00;66579.34;5035307;28;45482;-72
2022/01/14 09:29:32;;;;;;;;;17.25;16.00;;;;;-149.97;100.00;66579.34;5026522;28;46330;-72
2022/01/14 09:31:58;;;;;;;;;19.75;16.50;;;;;-149.97;100.00;66579.34;5033643;28;45383;-72
2022/01/14 09:34:23;;;;;;;;;17.00;16.50;;;;;-149.97;100.00;66579.34;5028964;28;45527;-73
2022/01/14 09:36:48;;;;;;;;;20.00;19.00;;;;;-149.97;100.00;66579.34;5024286;28;45264;-72
2022/01/14 09:39:14;;;;;;;;;18.00;15.25;;;;;-149.97;100.00;66579.34;5036333;28;45442;-71
2022/01/14 09:41:40;;;;;;;;;19.50;17.25;;;;;-149.97;100.00;66579.34;5036178;28;45413;-72
2022/01/14 09:44:06;;;;;;;;;15.25;13.50;;;;;-149.97;100.00;66579.34;5023774;28;45350;-70
2022/01/14 09:46:31;;;;;;;;;13.75;13.75;;;;;-149.97;100.00;66579.34;5033726;28;45407;-72
2022/01/14 09:48:57;;;;;;;;;21.00;18.50;;;;;-149.97;100.00;66579.34;5034521;28;47249;-72
2022/01/14 09:51:24;;;;;;;;;17.25;17.00;;;;;-149.97;100.00;66579.34;5035422;28;45352;-72
2022/01/14 09:53:49;;;;;;;;;18.25;15.75;;;;;-149.97;100.00;66579.34;5036237;28;45608;-72
2022/01/14 09:56:17;;;;;;;;;16.25;15.00;;;;;-149.97;100.00;66579.34;5035028;28;45435;-73
2022/01/14 09:58:47;;;;;;;;;18.00;17.00;;;;;-149.97;100.00;66579.34;5034003;28;47296;-72
2022/01/14 10:01:15;;;;;;;;;18.50;16.00;;;;;-149.97;100.00;66579.34;5031434;28;45407;-72
2022/01/14 10:03:51;;;;;;;;;15.75;14.25;;;;;-149.97;100.00;66579.34;5035206;28;45560;-73
2022/01/14 10:06:38;;;;;;;;;15.75;15.75;;;;;-149.97;100.00;66579.34;5034188;28;45501;-71
2022/01/14 10:09:23;;;;;;;;;18.50;16.50;;;;;-149.97;100.00;66579.34;5033504;28;46206;-71
2022/01/14 10:11:59;;;;;;;;;16.25;15.75;;;;;-149.97;100.00;66579.34;5020984;28;48524;-72
2022/01/14 10:14:25;;;;;;;;;19.75;17.25;;;;;-149.97;100.00;66579.34;5035593;28;45503;-73
2022/01/14 10:16:56;;;;;;;;;16.75;15.50;;;;;-149.97;100.00;66579.34;5035138;28;45642;-73
2022/01/14 10:19:30;;;;;;;;;16.75;16.75;;;;;-149.97;100.00;66579.34;5034593;28;46524;-72
2022/01/14 10:21:56;;;;;;;;;14.00;14.00;;;;;-149.97;100.00;66579.34;5034871;28;45761;-72
2022/01/14 10:24:23;;;;;;;;;16.50;16.00;;;;;-149.97;100.00;66579.34;5035159;28;45541;-73
2022/01/14 10:27:15;;;;;;;;;16.50;15.50;;;;;-149.97;100.00;66579.34;5019466;28;45290;-72
2022/01/14 10:29:42;;;;;;;;;17.75;14.25;;;;;-149.97;100.00;66579.34;5030917;28;45407;-72
2022/01/14 10:32:08;;;;;;;;;15.75;14.75;;;;;-149.97;100.00;66579.34;5034919;28;45508;-72
2022/01/14 10:34:35;;;;;;;;;15.50;14.50;;;;;-149.97;100.00;66579.34;5027172;28;45426;-72
2022/01/14 10:37:15;;;;;;;;;16.00;15.00;;;;;-149.97;100.00;66579.34;5034400;28;45397;-71
2022/01/14 10:39:47;;;;;;;;;18.75;14.25;;;;;-149.97;100.00;66579.34;5032211;28;46634;-71
2022/01/14 10:42:23;;;;;;;;;18.25;15.75;;;;;-149.97;100.00;66579.34;5030572;28;45715;-71
2022/01/14 10:44:48;;;;;;;;;14.75;13.25;;;;;-149.97;100.00;66579.34;5033175;28;45361;-71
2022/01/14 10:47:20;;;;;;;;;20.75;16.75;;;;;-149.97;100.00;66579.34;5026426;28;45368;-72
2022/01/14 10:49:46;;;;;;;;;16.75;14.50;;;;;-149.97;100.00;66579.34;5033159;28;47425;-72
2022/01/14 10:52:18;;;;;;;;;17.00;16.00;;;;;-149.97;100.00;66579.34;5031416;28;45313;-72
2022/01/14 10:54:48;;;;;;;;;13.50;13.25;;;;;-149.97;100.00;66579.34;5033590;28;45548;-72
2022/01/14 10:57:20;;;;;;;;;31.00;28.50;;;;;-149.97;100.00;66579.34;5033764;28;45494;-75
2022/01/14 10:59:47;;;;;;;;;27.50;26.00;;;;;-149.97;100.00;66579.34;5025525;28;48326;-75
2022/01/14 11:02:31;;;;;;;;;31.75;28.75;;;;;-149.97;100.00;66579.34;5021499;28;45378;-74
2022/01/14 11:05:05;;;;;;;;;29.50;29.00;;;;;-149.97;100.00;66579.34;5033367;28;45337;-75
2022/01/14 11:07:31;;;;;;;;;30.75;26.50;;;;;-149.97;100.00;66579.34;5025825;28;45290;-75
2022/01/14 11:09:58;;;;;;;;;33.25;30.00;;;;;-149.97;100.00;66579.34;5003656;28;46299;-75
2022/01/14 11:12:24;;;;;;;;;38.25;32.25;;;;;-149.97;100.00;66579.34;5027970;28;45556;-75
2022/01/14 11:14:50;;;;;;;;;34.25;31.50;;;;;-149.97;100.00;66579.34;5034103;28;45706;-75
2022/01/14 11:17:15;;;;;;;;;38.75;33.25;;;;;-149.97;100.00;66579.34;5035564;28;45408;-75
2022/01/14 11:19:45;;;;;;;;;40.75;33.00;;;;;-149.97;100.00;66579.34;5033230;28;46151;-75